x

Ilm2 - 5 Miles Se Of Wrightsville Beach, Nc (41038) Weather Station

3:08 - Sat 3rd Dec 2016 All times are EST. -5 hours from GMT.

  • Wind
    20mph, 34mph gusts
  • Sea Temp 63°f
  • Air Temp 48°f
  • Sea Pressure 1021.6mb
  • Ilm2 - 5 Miles Se Of Wrightsville Beach, Nc
  • Ilm2 - 5 Miles Se Of Wrightsville Beach, Nc

More Historic Weather Station data

Upgrade to MSW Pro to gain access to the past 30 days of data for over 8000 Wavebouys and Weather Stations around the globe.

Join Pro

Comparision Forecast

View Surf forecast
   
sam. 12/03 3:08 20 34 mph 1021.6mb 63f 48f
2:08 20 29 mph 1020.9mb 63f 51f
12:08 16 22 mph 1020.7mb 64f 51f
ven. 12/02 11:08 16 22 mph 1021.4mb 64f 52f
10:08 13 22 mph 1021.3mb 64f 52f
9:08 16 25 mph 1020.6mb 64f 53f
8:08 13 20 mph 1020.5mb 64f 54f
7:08 16 20 mph 1019.9mb 64f 54f
6:08 13 20 mph 1019.6mb 64f 55f
5:08 13 22 mph 1019.2mb 64f 55f
4:08 13 20 mph 1018mb 64f 56f
3:08 11 18 mph 1019mb 64f 56f
10:08 16 27 mph 1020.2mb 64f 49f
9:08 18 29 mph 1019.8mb 64f 48f
8:08 20 36 mph 1018.7mb 64f 47f
7:08 20 34 mph 1018.1mb 63f 47f
6:08 20 36 mph 1017.4mb 63f 48f
5:08 20 38 mph 1016.7mb 63f 48f
3:08 18 34 mph 1015.6mb 62f 52f
2:08 18 27 mph 1014.8mb 62f 54f
12:08 18 27 mph 1014.8mb 62f 55f
jeu. 12/01 11:08 16 22 mph 1014.4mb 62f 56f
10:08 16 22 mph 1014mb 63f 57f
9:08 16 20 mph 1013.4mb 63f 58f
8:08 16 22 mph 1012.9mb 63f 59f
6:08 11 16 mph 1011.7mb 63f 60f
5:08 13 20 mph 1010.9mb 63f 61f
4:08 13 20 mph 1010mb 63f 62f
3:08 9 16 mph 1009.9mb 63f 65f
2:08 11 16 mph 1009.8mb 63f 65f
12:08 13 18 mph 1010.7mb 63f 64f
11:08 13 18 mph 1011.4mb 63f 62f
10:08 13 20 mph 1011.7mb 62f 61f
9:08 16 22 mph 1011.4mb 62f 62f
8:08 13 18 mph 1010.5mb 62f 62f
7:08 16 22 mph 1009.7mb 62f 61f
6:08 13 22 mph 1008.9mb 62f 62f
3:08 20 29 mph 1008.6mb 62f 64f
2:08 13 22 mph 1008.4mb 62f 64f
12:08 13 20 mph 1008.8mb 62f 64f
mer. 11/30 11:08 13 22 mph 1009.5mb 62f 64f
10:08 16 20 mph 1009.6mb 62f 64f
9:08 11 16 mph 1010mb 62f 63f
8:08 13 18 mph 1010mb 62f 63f
7:08 16 20 mph 1010.6mb 62f 64f
6:08 13 20 mph 1010.7mb 62f 64f
5:08 9 13 mph 1011.2mb 62f 62f
4:08 7 11 mph 1011mb 62f 62f
3:08 13 20 mph 1010.8mb 62f 63f
1:08 16 20 mph 1012.2mb 62f 63f
12:08 16 20 mph 1012.8mb 62f 63f
11:08 11 16 mph 1014.6mb 62f 62f
10:08 11 13 mph 1014.6mb 62f 62f
9:08 11 18 mph 1015.1mb 62f 62f
8:08 16 27 mph 1014.9mb 62f 63f
7:08 9 13 mph 1014.8mb 62f 63f
6:08 11 16 mph 1014.5mb 62f 63f
5:08 13 18 mph 1014.4mb 62f 63f
4:08 13 18 mph 1014.3mb 62f 63f
3:08 9 13 mph 1015mb 62f 62f
1:08 13 18 mph 1015.2mb 62f 63f
12:08 13 20 mph 1015.4mb 62f 64f
mar. 11/29 11:08 16 20 mph 1016.1mb 62f 64f
8:08 9 13 mph 1016.1mb 62f 63f
5:08 11 18 mph 1015.7mb 63f 64f
3:08 13 22 mph 1014.6mb 63f 66f
2:08 16 22 mph 1014.1mb 63f 66f
1:08 18 29 mph 1014.9mb 63f 65f
11:08 22 31 mph 1015.9mb 63f 66f
10:08 20 34 mph 1015.5mb 63f 66f